sensor_id;sensor_type;location;lat;lon;timestamp;P1;durP1;ratioP1;P2;durP2;ratioP2
173;SDS011;75;48.784;9.364;2023-05-10T00:00:24;8.20;;;4.63;;
173;SDS011;75;48.784;9.364;2023-05-10T00:02:50;7.10;;;5.43;;
173;SDS011;75;48.784;9.364;2023-05-10T00:05:16;6.80;;;4.87;;
173;SDS011;75;48.784;9.364;2023-05-10T00:07:42;7.83;;;5.23;;
173;SDS011;75;48.784;9.364;2023-05-10T00:10:10;7.40;;;4.97;;
173;SDS011;75;48.784;9.364;2023-05-10T00:12:36;5.83;;;4.30;;
173;SDS011;75;48.784;9.364;2023-05-10T00:15:02;5.80;;;4.27;;
173;SDS011;75;48.784;9.364;2023-05-10T00:17:28;6.93;;;4.23;;
173;SDS011;75;48.784;9.364;2023-05-10T00:19:54;5.33;;;4.17;;
173;SDS011;75;48.784;9.364;2023-05-10T00:22:20;5.93;;;3.90;;
173;SDS011;75;48.784;9.364;2023-05-10T00:24:46;10.30;;;4.23;;
173;SDS011;75;48.784;9.364;2023-05-10T00:27:12;6.27;;;3.30;;
173;SDS011;75;48.784;9.364;2023-05-10T00:29:38;5.10;;;3.10;;
173;SDS011;75;48.784;9.364;2023-05-10T00:32:04;6.43;;;3.70;;
173;SDS011;75;48.784;9.364;2023-05-10T00:34:30;9.43;;;3.93;;
173;SDS011;75;48.784;9.364;2023-05-10T00:36:56;10.73;;;3.73;;
173;SDS011;75;48.784;9.364;2023-05-10T00:39:22;6.60;;;3.80;;
173;SDS011;75;48.784;9.364;2023-05-10T00:41:48;5.90;;;4.00;;
173;SDS011;75;48.784;9.364;2023-05-10T00:44:14;6.60;;;4.30;;
173;SDS011;75;48.784;9.364;2023-05-10T00:46:41;8.80;;;3.80;;
173;SDS011;75;48.784;9.364;2023-05-10T00:49:07;3.40;;;2.67;;
173;SDS011;75;48.784;9.364;2023-05-10T00:51:33;5.97;;;3.37;;
173;SDS011;75;48.784;9.364;2023-05-10T00:53:59;6.27;;;3.70;;
173;SDS011;75;48.784;9.364;2023-05-10T00:56:25;5.70;;;3.53;;
173;SDS011;75;48.784;9.364;2023-05-10T00:58:53;4.73;;;2.30;;
173;SDS011;75;48.784;9.364;2023-05-10T01:01:19;3.47;;;2.20;;
173;SDS011;75;48.784;9.364;2023-05-10T01:03:45;2.80;;;2.10;;
173;SDS011;75;48.784;9.364;2023-05-10T01:06:11;2.83;;;2.20;;
173;SDS011;75;48.784;9.364;2023-05-10T01:08:38;3.17;;;2.20;;
173;SDS011;75;48.784;9.364;2023-05-10T01:11:04;3.90;;;2.03;;
173;SDS011;75;48.784;9.364;2023-05-10T01:13:31;3.03;;;1.80;;
173;SDS011;75;48.784;9.364;2023-05-10T01:15:58;3.90;;;2.30;;
173;SDS011;75;48.784;9.364;2023-05-10T01:18:27;3.90;;;2.20;;
173;SDS011;75;48.784;9.364;2023-05-10T01:26:39;3.33;;;2.40;;
173;SDS011;75;48.784;9.364;2023-05-10T01:29:18;4.17;;;2.67;;
173;SDS011;75;48.784;9.364;2023-05-10T01:34:22;3.83;;;2.00;;
173;SDS011;75;48.784;9.364;2023-05-10T01:36:58;2.57;;;2.03;;
173;SDS011;75;48.784;9.364;2023-05-10T01:42:23;2.90;;;2.33;;
173;SDS011;75;48.784;9.364;2023-05-10T01:44:56;4.70;;;2.77;;
173;SDS011;75;48.784;9.364;2023-05-10T01:47:27;2.90;;;2.20;;
173;SDS011;75;48.784;9.364;2023-05-10T01:49:55;3.67;;;2.40;;
173;SDS011;75;48.784;9.364;2023-05-10T01:52:25;5.60;;;2.60;;
173;SDS011;75;48.784;9.364;2023-05-10T01:54:55;5.30;;;2.80;;
173;SDS011;75;48.784;9.364;2023-05-10T01:57:24;7.13;;;3.20;;
173;SDS011;75;48.784;9.364;2023-05-10T01:59:51;3.83;;;2.87;;
173;SDS011;75;48.784;9.364;2023-05-10T02:02:18;3.83;;;2.40;;
173;SDS011;75;48.784;9.364;2023-05-10T02:04:46;4.13;;;2.60;;
173;SDS011;75;48.784;9.364;2023-05-10T02:07:12;4.20;;;2.70;;
173;SDS011;75;48.784;9.364;2023-05-10T02:09:38;3.27;;;2.57;;
173;SDS011;75;48.784;9.364;2023-05-10T02:12:05;6.50;;;3.00;;
173;SDS011;75;48.784;9.364;2023-05-10T02:14:32;3.53;;;2.80;;
173;SDS011;75;48.784;9.364;2023-05-10T02:16:59;4.33;;;3.00;;
173;SDS011;75;48.784;9.364;2023-05-10T02:19:26;6.10;;;3.20;;
173;SDS011;75;48.784;9.364;2023-05-10T02:21:53;6.93;;;3.30;;
173;SDS011;75;48.784;9.364;2023-05-10T02:24:20;6.10;;;3.47;;
173;SDS011;75;48.784;9.364;2023-05-10T02:26:47;4.43;;;2.67;;
173;SDS011;75;48.784;9.364;2023-05-10T02:29:14;3.97;;;2.63;;
173;SDS011;75;48.784;9.364;2023-05-10T02:31:40;5.03;;;2.73;;
173;SDS011;75;48.784;9.364;2023-05-10T02:34:08;4.17;;;2.40;;
173;SDS011;75;48.784;9.364;2023-05-10T02:36:36;4.17;;;2.70;;
173;SDS011;75;48.784;9.364;2023-05-10T02:39:02;4.23;;;2.70;;
173;SDS011;75;48.784;9.364;2023-05-10T02:41:29;3.40;;;2.83;;
173;SDS011;75;48.784;9.364;2023-05-10T02:43:57;3.83;;;2.90;;
173;SDS011;75;48.784;9.364;2023-05-10T02:46:25;5.40;;;2.80;;
173;SDS011;75;48.784;9.364;2023-05-10T02:48:51;3.63;;;2.80;;
173;SDS011;75;48.784;9.364;2023-05-10T02:51:17;4.80;;;2.80;;
173;SDS011;75;48.784;9.364;2023-05-10T02:53:44;7.37;;;3.20;;
173;SDS011;75;48.784;9.364;2023-05-10T02:56:12;4.60;;;3.23;;
173;SDS011;75;48.784;9.364;2023-05-10T02:58:39;4.70;;;2.80;;
173;SDS011;75;48.784;9.364;2023-05-10T03:01:05;3.57;;;2.87;;
173;SDS011;75;48.784;9.364;2023-05-10T03:03:32;4.33;;;3.10;;
173;SDS011;75;48.784;9.364;2023-05-10T03:05:58;6.73;;;3.23;;
173;SDS011;75;48.784;9.364;2023-05-10T03:08:24;4.03;;;2.90;;
173;SDS011;75;48.784;9.364;2023-05-10T03:13:29;4.10;;;3.00;;
173;SDS011;75;48.784;9.364;2023-05-10T03:16:06;13.10;;;3.10;;
173;SDS011;75;48.784;9.364;2023-05-10T03:18:37;3.30;;;2.50;;
173;SDS011;75;48.784;9.364;2023-05-10T03:21:05;7.80;;;2.73;;
173;SDS011;75;48.784;9.364;2023-05-10T03:23:34;4.50;;;3.40;;
173;SDS011;75;48.784;9.364;2023-05-10T03:26:01;4.57;;;3.33;;
173;SDS011;75;48.784;9.364;2023-05-10T03:28:27;4.47;;;2.97;;
173;SDS011;75;48.784;9.364;2023-05-10T03:30:53;4.50;;;2.80;;
173;SDS011;75;48.784;9.364;2023-05-10T03:33:19;5.33;;;2.97;;
173;SDS011;75;48.784;9.364;2023-05-10T03:35:45;3.50;;;2.80;;
173;SDS011;75;48.784;9.364;2023-05-10T03:38:12;4.80;;;3.63;;
173;SDS011;75;48.784;9.364;2023-05-10T03:40:38;4.70;;;3.90;;
173;SDS011;75;48.784;9.364;2023-05-10T03:43:04;6.90;;;3.23;;
173;SDS011;75;48.784;9.364;2023-05-10T03:45:30;3.83;;;3.00;;
173;SDS011;75;48.784;9.364;2023-05-10T03:47:59;6.30;;;2.60;;
173;SDS011;75;48.784;9.364;2023-05-10T03:50:25;3.97;;;3.10;;
173;SDS011;75;48.784;9.364;2023-05-10T03:52:51;8.27;;;3.20;;
173;SDS011;75;48.784;9.364;2023-05-10T03:55:17;4.67;;;3.30;;
173;SDS011;75;48.784;9.364;2023-05-10T03:57:43;5.33;;;3.33;;
173;SDS011;75;48.784;9.364;2023-05-10T04:00:09;6.07;;;3.60;;
173;SDS011;75;48.784;9.364;2023-05-10T04:02:36;5.13;;;3.50;;
173;SDS011;75;48.784;9.364;2023-05-10T04:05:02;4.87;;;3.60;;
173;SDS011;75;48.784;9.364;2023-05-10T04:07:28;5.47;;;3.57;;
173;SDS011;75;48.784;9.364;2023-05-10T04:09:54;4.93;;;3.30;;
173;SDS011;75;48.784;9.364;2023-05-10T04:12:20;6.30;;;3.40;;
173;SDS011;75;48.784;9.364;2023-05-10T04:14:46;4.70;;;3.20;;
173;SDS011;75;48.784;9.364;2023-05-10T04:17:12;6.70;;;3.60;;
173;SDS011;75;48.784;9.364;2023-05-10T04:19:38;5.10;;;3.30;;
173;SDS011;75;48.784;9.364;2023-05-10T04:22:04;6.83;;;3.90;;
173;SDS011;75;48.784;9.364;2023-05-10T04:24:30;6.50;;;4.00;;
173;SDS011;75;48.784;9.364;2023-05-10T04:26:55;4.50;;;3.30;;
173;SDS011;75;48.784;9.364;2023-05-10T04:29:21;4.90;;;3.30;;
173;SDS011;75;48.784;9.364;2023-05-10T04:31:47;8.43;;;3.67;;
173;SDS011;75;48.784;9.364;2023-05-10T04:34:13;5.43;;;3.80;;
173;SDS011;75;48.784;9.364;2023-05-10T04:36:39;5.43;;;3.80;;
173;SDS011;75;48.784;9.364;2023-05-10T04:39:05;6.37;;;3.90;;
173;SDS011;75;48.784;9.364;2023-05-10T04:41:31;6.03;;;4.10;;
173;SDS011;75;48.784;9.364;2023-05-10T04:43:57;4.50;;;3.60;;
173;SDS011;75;48.784;9.364;2023-05-10T04:46:23;5.43;;;3.90;;
173;SDS011;75;48.784;9.364;2023-05-10T04:48:49;3.93;;;3.23;;
173;SDS011;75;48.784;9.364;2023-05-10T04:51:15;4.10;;;3.20;;
173;SDS011;75;48.784;9.364;2023-05-10T04:53:41;4.53;;;3.47;;
173;SDS011;75;48.784;9.364;2023-05-10T04:56:07;4.00;;;3.27;;
173;SDS011;75;48.784;9.364;2023-05-10T04:58:33;4.63;;;2.80;;
173;SDS011;75;48.784;9.364;2023-05-10T05:01:06;3.90;;;2.60;;
173;SDS011;75;48.784;9.364;2023-05-10T05:03:32;4.03;;;2.90;;
173;SDS011;75;48.784;9.364;2023-05-10T05:05:58;5.57;;;3.00;;
173;SDS011;75;48.784;9.364;2023-05-10T05:08:24;3.33;;;2.70;;
173;SDS011;75;48.784;9.364;2023-05-10T05:10:50;3.57;;;2.70;;
173;SDS011;75;48.784;9.364;2023-05-10T05:13:17;4.53;;;3.00;;
173;SDS011;75;48.784;9.364;2023-05-10T05:15:43;3.80;;;2.90;;
173;SDS011;75;48.784;9.364;2023-05-10T05:18:09;3.40;;;2.77;;
173;SDS011;75;48.784;9.364;2023-05-10T05:20:35;3.60;;;2.70;;
173;SDS011;75;48.784;9.364;2023-05-10T05:23:01;3.57;;;2.47;;
173;SDS011;75;48.784;9.364;2023-05-10T05:25:27;3.30;;;2.50;;
173;SDS011;75;48.784;9.364;2023-05-10T05:27:53;6.00;;;2.60;;
173;SDS011;75;48.784;9.364;2023-05-10T05:30:19;5.87;;;2.43;;
173;SDS011;75;48.784;9.364;2023-05-10T05:32:45;3.43;;;2.50;;
173;SDS011;75;48.784;9.364;2023-05-10T05:35:12;3.57;;;2.67;;
173;SDS011;75;48.784;9.364;2023-05-10T05:37:38;3.07;;;2.20;;
173;SDS011;75;48.784;9.364;2023-05-10T05:40:04;4.83;;;2.83;;
173;SDS011;75;48.784;9.364;2023-05-10T05:42:30;3.80;;;2.50;;
173;SDS011;75;48.784;9.364;2023-05-10T05:44:56;4.63;;;2.80;;
173;SDS011;75;48.784;9.364;2023-05-10T05:47:22;5.73;;;3.30;;
173;SDS011;75;48.784;9.364;2023-05-10T05:49:48;3.70;;;2.80;;
173;SDS011;75;48.784;9.364;2023-05-10T05:52:14;5.23;;;3.10;;
173;SDS011;75;48.784;9.364;2023-05-10T05:54:40;3.97;;;2.83;;
173;SDS011;75;48.784;9.364;2023-05-10T05:57:06;4.60;;;2.40;;
173;SDS011;75;48.784;9.364;2023-05-10T05:59:32;3.73;;;2.67;;
173;SDS011;75;48.784;9.364;2023-05-10T06:01:58;3.20;;;2.47;;
173;SDS011;75;48.784;9.364;2023-05-10T06:04:25;5.37;;;2.70;;
173;SDS011;75;48.784;9.364;2023-05-10T06:06:51;4.37;;;2.67;;
173;SDS011;75;48.784;9.364;2023-05-10T06:09:17;3.50;;;2.60;;
173;SDS011;75;48.784;9.364;2023-05-10T06:11:43;3.23;;;2.50;;
173;SDS011;75;48.784;9.364;2023-05-10T06:14:09;5.60;;;2.63;;
173;SDS011;75;48.784;9.364;2023-05-10T06:16:35;5.47;;;2.70;;
173;SDS011;75;48.784;9.364;2023-05-10T06:19:02;6.90;;;2.70;;
173;SDS011;75;48.784;9.364;2023-05-10T06:21:28;3.53;;;2.67;;
173;SDS011;75;48.784;9.364;2023-05-10T06:23:54;4.37;;;2.90;;
173;SDS011;75;48.784;9.364;2023-05-10T06:26:20;3.97;;;2.50;;
173;SDS011;75;48.784;9.364;2023-05-10T06:28:46;3.43;;;2.50;;
173;SDS011;75;48.784;9.364;2023-05-10T06:31:12;3.30;;;2.47;;
173;SDS011;75;48.784;9.364;2023-05-10T06:33:38;4.30;;;2.47;;
173;SDS011;75;48.784;9.364;2023-05-10T06:36:04;5.07;;;2.90;;
173;SDS011;75;48.784;9.364;2023-05-10T06:38:30;5.00;;;2.70;;
173;SDS011;75;48.784;9.364;2023-05-10T06:40:55;6.20;;;2.70;;
173;SDS011;75;48.784;9.364;2023-05-10T06:43:22;3.70;;;2.40;;
173;SDS011;75;48.784;9.364;2023-05-10T06:45:49;5.97;;;2.40;;
173;SDS011;75;48.784;9.364;2023-05-10T06:48:15;3.23;;;2.37;;
173;SDS011;75;48.784;9.364;2023-05-10T06:50:41;4.07;;;2.33;;
173;SDS011;75;48.784;9.364;2023-05-10T06:53:07;4.37;;;2.97;;
173;SDS011;75;48.784;9.364;2023-05-10T06:55:33;3.50;;;2.50;;
173;SDS011;75;48.784;9.364;2023-05-10T06:57:59;6.33;;;2.50;;
173;SDS011;75;48.784;9.364;2023-05-10T07:00:25;4.00;;;2.47;;
173;SDS011;75;48.784;9.364;2023-05-10T07:02:51;3.40;;;2.40;;
173;SDS011;75;48.784;9.364;2023-05-10T07:05:17;3.70;;;2.70;;
173;SDS011;75;48.784;9.364;2023-05-10T07:07:44;8.10;;;2.53;;
173;SDS011;75;48.784;9.364;2023-05-10T07:10:10;4.87;;;2.60;;
173;SDS011;75;48.784;9.364;2023-05-10T07:12:36;3.43;;;2.50;;
173;SDS011;75;48.784;9.364;2023-05-10T07:15:03;4.90;;;2.50;;
173;SDS011;75;48.784;9.364;2023-05-10T07:17:29;5.40;;;2.77;;
173;SDS011;75;48.784;9.364;2023-05-10T07:19:55;3.53;;;2.57;;
173;SDS011;75;48.784;9.364;2023-05-10T07:22:21;3.30;;;2.60;;
173;SDS011;75;48.784;9.364;2023-05-10T07:24:47;4.23;;;3.00;;
173;SDS011;75;48.784;9.364;2023-05-10T07:27:13;4.17;;;2.97;;
173;SDS011;75;48.784;9.364;2023-05-10T07:29:39;3.90;;;2.80;;
173;SDS011;75;48.784;9.364;2023-05-10T07:32:05;4.30;;;2.57;;
173;SDS011;75;48.784;9.364;2023-05-10T07:34:31;3.47;;;2.60;;
173;SDS011;75;48.784;9.364;2023-05-10T07:37:00;3.60;;;2.43;;
173;SDS011;75;48.784;9.364;2023-05-10T07:39:26;4.40;;;2.27;;
173;SDS011;75;48.784;9.364;2023-05-10T07:41:53;3.80;;;2.70;;
173;SDS011;75;48.784;9.364;2023-05-10T07:44:19;3.60;;;2.47;;
173;SDS011;75;48.784;9.364;2023-05-10T07:46:45;3.57;;;2.60;;
173;SDS011;75;48.784;9.364;2023-05-10T07:49:11;4.20;;;2.70;;
173;SDS011;75;48.784;9.364;2023-05-10T07:51:37;4.00;;;2.43;;
173;SDS011;75;48.784;9.364;2023-05-10T07:54:03;3.90;;;2.30;;
173;SDS011;75;48.784;9.364;2023-05-10T07:56:30;4.13;;;2.67;;
173;SDS011;75;48.784;9.364;2023-05-10T07:58:56;3.90;;;2.80;;
173;SDS011;75;48.784;9.364;2023-05-10T08:01:23;4.77;;;2.80;;
173;SDS011;75;48.784;9.364;2023-05-10T08:03:49;5.07;;;2.70;;
173;SDS011;75;48.784;9.364;2023-05-10T08:06:16;5.30;;;2.40;;
173;SDS011;75;48.784;9.364;2023-05-10T08:08:42;3.33;;;2.23;;
173;SDS011;75;48.784;9.364;2023-05-10T08:11:10;3.43;;;2.40;;
173;SDS011;75;48.784;9.364;2023-05-10T08:13:36;4.33;;;2.63;;
173;SDS011;75;48.784;9.364;2023-05-10T08:16:02;3.40;;;2.40;;
173;SDS011;75;48.784;9.364;2023-05-10T08:18:28;3.57;;;2.73;;
173;SDS011;75;48.784;9.364;2023-05-10T08:20:54;4.73;;;2.40;;
173;SDS011;75;48.784;9.364;2023-05-10T08:23:20;3.13;;;2.30;;
173;SDS011;75;48.784;9.364;2023-05-10T08:25:46;3.77;;;2.50;;
173;SDS011;75;48.784;9.364;2023-05-10T08:28:12;3.20;;;2.50;;
173;SDS011;75;48.784;9.364;2023-05-10T08:30:38;4.17;;;2.40;;
173;SDS011;75;48.784;9.364;2023-05-10T08:33:04;3.43;;;2.30;;
173;SDS011;75;48.784;9.364;2023-05-10T08:35:30;3.30;;;2.33;;
173;SDS011;75;48.784;9.364;2023-05-10T08:37:56;5.43;;;2.33;;
173;SDS011;75;48.784;9.364;2023-05-10T08:40:22;6.57;;;2.50;;
173;SDS011;75;48.784;9.364;2023-05-10T08:43:04;3.40;;;2.50;;
173;SDS011;75;48.784;9.364;2023-05-10T08:45:32;3.47;;;2.30;;
173;SDS011;75;48.784;9.364;2023-05-10T08:47:59;3.17;;;2.23;;
173;SDS011;75;48.784;9.364;2023-05-10T08:50:26;4.40;;;2.20;;
173;SDS011;75;48.784;9.364;2023-05-10T08:52:53;3.83;;;2.40;;
173;SDS011;75;48.784;9.364;2023-05-10T08:55:21;3.13;;;2.10;;
173;SDS011;75;48.784;9.364;2023-05-10T08:57:48;2.67;;;1.97;;
173;SDS011;75;48.784;9.364;2023-05-10T09:00:15;3.70;;;2.00;;
173;SDS011;75;48.784;9.364;2023-05-10T09:02:41;4.17;;;2.10;;
173;SDS011;75;48.784;9.364;2023-05-10T09:05:07;3.63;;;1.90;;
173;SDS011;75;48.784;9.364;2023-05-10T09:07:34;5.60;;;2.20;;
173;SDS011;75;48.784;9.364;2023-05-10T09:10:00;3.80;;;2.00;;
173;SDS011;75;48.784;9.364;2023-05-10T09:12:27;5.37;;;2.10;;
173;SDS011;75;48.784;9.364;2023-05-10T09:14:52;3.47;;;2.10;;
173;SDS011;75;48.784;9.364;2023-05-10T09:17:19;3.30;;;2.00;;
173;SDS011;75;48.784;9.364;2023-05-10T09:19:46;2.77;;;2.07;;
173;SDS011;75;48.784;9.364;2023-05-10T09:22:12;4.10;;;2.10;;
173;SDS011;75;48.784;9.364;2023-05-10T09:24:38;3.27;;;1.97;;
173;SDS011;75;48.784;9.364;2023-05-10T09:27:09;3.27;;;1.90;;
173;SDS011;75;48.784;9.364;2023-05-10T09:29:44;2.50;;;1.80;;
173;SDS011;75;48.784;9.364;2023-05-10T09:32:10;4.43;;;2.00;;
173;SDS011;75;48.784;9.364;2023-05-10T09:34:36;3.60;;;1.90;;
173;SDS011;75;48.784;9.364;2023-05-10T09:37:04;5.20;;;2.00;;
173;SDS011;75;48.784;9.364;2023-05-10T09:39:31;2.50;;;1.80;;
173;SDS011;75;48.784;9.364;2023-05-10T09:41:58;4.43;;;2.10;;
173;SDS011;75;48.784;9.364;2023-05-10T09:44:25;5.73;;;2.10;;
173;SDS011;75;48.784;9.364;2023-05-10T09:46:51;5.83;;;1.90;;
173;SDS011;75;48.784;9.364;2023-05-10T09:49:17;5.30;;;1.97;;
173;SDS011;75;48.784;9.364;2023-05-10T09:51:43;3.00;;;1.67;;
173;SDS011;75;48.784;9.364;2023-05-10T09:56:36;2.60;;;1.80;;
173;SDS011;75;48.784;9.364;2023-05-10T09:59:04;3.53;;;1.80;;
173;SDS011;75;48.784;9.364;2023-05-10T10:01:30;3.17;;;1.70;;
173;SDS011;75;48.784;9.364;2023-05-10T10:03:56;4.63;;;2.53;;
173;SDS011;75;48.784;9.364;2023-05-10T10:06:23;2.70;;;1.90;;
173;SDS011;75;48.784;9.364;2023-05-10T10:08:49;4.33;;;1.80;;
173;SDS011;75;48.784;9.364;2023-05-10T10:11:15;2.50;;;1.70;;
173;SDS011;75;48.784;9.364;2023-05-10T10:13:41;2.50;;;1.70;;
173;SDS011;75;48.784;9.364;2023-05-10T10:16:08;3.03;;;2.00;;
173;SDS011;75;48.784;9.364;2023-05-10T10:18:35;3.27;;;1.80;;
173;SDS011;75;48.784;9.364;2023-05-10T10:21:05;2.30;;;1.80;;
173;SDS011;75;48.784;9.364;2023-05-10T10:23:34;3.67;;;2.00;;
173;SDS011;75;48.784;9.364;2023-05-10T10:26:00;4.83;;;2.50;;
173;SDS011;75;48.784;9.364;2023-05-10T10:31:15;3.27;;;2.23;;
173;SDS011;75;48.784;9.364;2023-05-10T10:33:57;4.20;;;2.20;;
173;SDS011;75;48.784;9.364;2023-05-10T10:36:25;5.13;;;2.00;;
173;SDS011;75;48.784;9.364;2023-05-10T10:38:55;4.03;;;2.20;;
173;SDS011;75;48.784;9.364;2023-05-10T10:41:34;2.80;;;2.00;;
173;SDS011;75;48.784;9.364;2023-05-10T10:52:21;3.40;;;2.10;;
173;SDS011;75;48.784;9.364;2023-05-10T10:54:51;3.87;;;2.00;;
173;SDS011;75;48.784;9.364;2023-05-10T10:57:18;5.30;;;2.30;;
173;SDS011;75;48.784;9.364;2023-05-10T10:59:44;4.57;;;2.57;;
173;SDS011;75;48.784;9.364;2023-05-10T11:04:55;6.80;;;2.60;;
173;SDS011;75;48.784;9.364;2023-05-10T11:07:21;3.07;;;2.10;;
173;SDS011;75;48.784;9.364;2023-05-10T11:09:48;7.00;;;2.00;;
173;SDS011;75;48.784;9.364;2023-05-10T11:12:14;4.00;;;2.20;;
173;SDS011;75;48.784;9.364;2023-05-10T11:14:39;5.10;;;2.50;;
173;SDS011;75;48.784;9.364;2023-05-10T11:22:54;3.23;;;2.00;;
173;SDS011;75;48.784;9.364;2023-05-10T11:25:23;3.47;;;1.90;;
173;SDS011;75;48.784;9.364;2023-05-10T11:27:51;5.30;;;2.07;;
173;SDS011;75;48.784;9.364;2023-05-10T11:30:18;5.17;;;2.00;;
173;SDS011;75;48.784;9.364;2023-05-10T11:32:44;3.40;;;2.00;;
173;SDS011;75;48.784;9.364;2023-05-10T11:35:10;4.87;;;2.07;;
173;SDS011;75;48.784;9.364;2023-05-10T11:37:38;4.10;;;2.00;;
173;SDS011;75;48.784;9.364;2023-05-10T11:40:08;4.20;;;2.13;;
173;SDS011;75;48.784;9.364;2023-05-10T11:42:36;3.53;;;1.67;;
173;SDS011;75;48.784;9.364;2023-05-10T11:45:02;4.93;;;1.70;;
173;SDS011;75;48.784;9.364;2023-05-10T11:47:28;2.73;;;1.83;;
173;SDS011;75;48.784;9.364;2023-05-10T11:49:55;2.83;;;1.70;;
173;SDS011;75;48.784;9.364;2023-05-10T11:52:21;4.33;;;1.97;;
173;SDS011;75;48.784;9.364;2023-05-10T11:54:53;3.67;;;1.90;;
173;SDS011;75;48.784;9.364;2023-05-10T11:57:20;4.83;;;2.07;;
173;SDS011;75;48.784;9.364;2023-05-10T11:59:46;3.73;;;1.63;;
173;SDS011;75;48.784;9.364;2023-05-10T12:02:15;2.50;;;1.70;;
173;SDS011;75;48.784;9.364;2023-05-10T12:04:41;3.40;;;2.10;;
173;SDS011;75;48.784;9.364;2023-05-10T12:07:08;3.90;;;1.90;;
173;SDS011;75;48.784;9.364;2023-05-10T12:09:34;4.43;;;2.07;;
173;SDS011;75;48.784;9.364;2023-05-10T12:12:00;3.80;;;2.03;;
173;SDS011;75;48.784;9.364;2023-05-10T12:14:27;3.60;;;1.70;;
173;SDS011;75;48.784;9.364;2023-05-10T12:16:58;3.10;;;1.80;;
173;SDS011;75;48.784;9.364;2023-05-10T12:19:24;3.63;;;1.90;;
173;SDS011;75;48.784;9.364;2023-05-10T12:21:49;4.20;;;2.40;;
173;SDS011;75;48.784;9.364;2023-05-10T12:24:15;2.90;;;2.00;;
173;SDS011;75;48.784;9.364;2023-05-10T12:26:42;3.70;;;1.93;;
173;SDS011;75;48.784;9.364;2023-05-10T12:29:12;2.97;;;2.07;;
173;SDS011;75;48.784;9.364;2023-05-10T12:31:58;5.90;;;2.40;;
173;SDS011;75;48.784;9.364;2023-05-10T12:34:25;4.27;;;2.20;;
173;SDS011;75;48.784;9.364;2023-05-10T12:36:54;3.13;;;2.20;;
173;SDS011;75;48.784;9.364;2023-05-10T12:39:20;5.23;;;2.30;;
173;SDS011;75;48.784;9.364;2023-05-10T12:41:46;4.07;;;2.27;;
173;SDS011;75;48.784;9.364;2023-05-10T12:44:12;4.00;;;2.20;;
173;SDS011;75;48.784;9.364;2023-05-10T12:46:38;4.10;;;2.23;;
173;SDS011;75;48.784;9.364;2023-05-10T12:49:04;3.77;;;2.10;;
173;SDS011;75;48.784;9.364;2023-05-10T12:51:30;3.83;;;2.40;;
173;SDS011;75;48.784;9.364;2023-05-10T12:53:56;3.90;;;2.10;;
173;SDS011;75;48.784;9.364;2023-05-10T12:56:22;3.87;;;2.30;;
173;SDS011;75;48.784;9.364;2023-05-10T12:58:48;4.93;;;2.50;;
173;SDS011;75;48.784;9.364;2023-05-10T13:01:14;3.93;;;2.47;;
173;SDS011;75;48.784;9.364;2023-05-10T13:03:40;4.27;;;2.47;;
173;SDS011;75;48.784;9.364;2023-05-10T13:06:07;5.17;;;2.30;;
173;SDS011;75;48.784;9.364;2023-05-10T13:08:33;5.83;;;2.60;;
173;SDS011;75;48.784;9.364;2023-05-10T13:11:00;4.77;;;2.60;;
173;SDS011;75;48.784;9.364;2023-05-10T13:13:26;5.87;;;2.70;;
173;SDS011;75;48.784;9.364;2023-05-10T13:15:52;4.87;;;2.57;;
173;SDS011;75;48.784;9.364;2023-05-10T13:18:18;6.10;;;2.77;;
173;SDS011;75;48.784;9.364;2023-05-10T13:20:44;5.80;;;3.60;;
173;SDS011;75;48.784;9.364;2023-05-10T13:23:10;4.47;;;3.20;;
173;SDS011;75;48.784;9.364;2023-05-10T13:25:36;4.10;;;2.60;;
173;SDS011;75;48.784;9.364;2023-05-10T13:28:02;4.93;;;2.43;;
173;SDS011;75;48.784;9.364;2023-05-10T13:30:28;4.00;;;2.47;;
173;SDS011;75;48.784;9.364;2023-05-10T13:32:54;5.53;;;2.40;;
173;SDS011;75;48.784;9.364;2023-05-10T13:35:20;4.30;;;2.63;;
173;SDS011;75;48.784;9.364;2023-05-10T13:37:46;5.23;;;2.50;;
173;SDS011;75;48.784;9.364;2023-05-10T13:40:12;4.13;;;2.33;;
173;SDS011;75;48.784;9.364;2023-05-10T13:42:40;6.07;;;2.60;;
173;SDS011;75;48.784;9.364;2023-05-10T13:45:06;3.67;;;2.50;;
173;SDS011;75;48.784;9.364;2023-05-10T13:47:32;3.63;;;2.60;;
173;SDS011;75;48.784;9.364;2023-05-10T13:49:58;5.00;;;2.40;;
173;SDS011;75;48.784;9.364;2023-05-10T13:52:24;4.80;;;2.60;;
173;SDS011;75;48.784;9.364;2023-05-10T13:54:50;3.30;;;2.30;;
173;SDS011;75;48.784;9.364;2023-05-10T13:57:19;4.60;;;2.47;;
173;SDS011;75;48.784;9.364;2023-05-10T13:59:45;3.30;;;2.30;;
173;SDS011;75;48.784;9.364;2023-05-10T14:02:11;4.47;;;2.30;;
173;SDS011;75;48.784;9.364;2023-05-10T14:04:38;4.93;;;2.30;;
173;SDS011;75;48.784;9.364;2023-05-10T14:07:04;5.07;;;2.30;;
173;SDS011;75;48.784;9.364;2023-05-10T14:09:30;5.70;;;2.30;;
173;SDS011;75;48.784;9.364;2023-05-10T14:11:56;6.77;;;3.13;;
173;SDS011;75;48.784;9.364;2023-05-10T14:14:22;5.60;;;2.20;;
173;SDS011;75;48.784;9.364;2023-05-10T14:16:48;7.57;;;2.40;;
173;SDS011;75;48.784;9.364;2023-05-10T14:19:14;4.60;;;2.50;;
173;SDS011;75;48.784;9.364;2023-05-10T14:21:39;3.90;;;2.40;;
173;SDS011;75;48.784;9.364;2023-05-10T14:24:05;4.33;;;2.40;;
173;SDS011;75;48.784;9.364;2023-05-10T14:26:32;3.60;;;2.40;;
173;SDS011;75;48.784;9.364;2023-05-10T14:28:59;4.50;;;2.13;;
173;SDS011;75;48.784;9.364;2023-05-10T14:31:25;4.17;;;2.30;;
173;SDS011;75;48.784;9.364;2023-05-10T14:33:51;4.43;;;2.30;;
173;SDS011;75;48.784;9.364;2023-05-10T14:36:17;3.33;;;2.23;;
173;SDS011;75;48.784;9.364;2023-05-10T14:38:43;3.77;;;2.17;;
173;SDS011;75;48.784;9.364;2023-05-10T14:41:09;3.57;;;2.40;;
173;SDS011;75;48.784;9.364;2023-05-10T14:43:39;5.20;;;2.20;;
173;SDS011;75;48.784;9.364;2023-05-10T14:46:04;4.03;;;2.37;;
173;SDS011;75;48.784;9.364;2023-05-10T14:48:31;4.77;;;2.40;;
173;SDS011;75;48.784;9.364;2023-05-10T14:50:57;6.00;;;2.50;;
173;SDS011;75;48.784;9.364;2023-05-10T14:53:23;5.30;;;2.50;;
173;SDS011;75;48.784;9.364;2023-05-10T14:55:48;4.30;;;2.37;;
173;SDS011;75;48.784;9.364;2023-05-10T14:58:14;3.47;;;2.30;;
173;SDS011;75;48.784;9.364;2023-05-10T15:00:41;4.33;;;2.43;;
173;SDS011;75;48.784;9.364;2023-05-10T15:03:07;3.90;;;2.30;;
173;SDS011;75;48.784;9.364;2023-05-10T15:05:33;3.27;;;2.00;;
173;SDS011;75;48.784;9.364;2023-05-10T15:07:59;4.10;;;2.10;;
173;SDS011;75;48.784;9.364;2023-05-10T15:10:25;3.20;;;2.13;;
173;SDS011;75;48.784;9.364;2023-05-10T15:12:51;4.43;;;2.10;;
173;SDS011;75;48.784;9.364;2023-05-10T15:15:17;3.10;;;2.20;;
173;SDS011;75;48.784;9.364;2023-05-10T15:17:43;4.20;;;2.00;;
173;SDS011;75;48.784;9.364;2023-05-10T15:20:09;4.50;;;2.37;;
173;SDS011;75;48.784;9.364;2023-05-10T15:22:35;2.87;;;2.10;;
173;SDS011;75;48.784;9.364;2023-05-10T15:25:01;3.73;;;2.13;;
173;SDS011;75;48.784;9.364;2023-05-10T15:27:27;9.00;;;2.23;;
173;SDS011;75;48.784;9.364;2023-05-10T15:29:53;5.90;;;2.30;;
173;SDS011;75;48.784;9.364;2023-05-10T15:32:19;4.37;;;2.10;;
173;SDS011;75;48.784;9.364;2023-05-10T15:34:45;3.30;;;2.27;;
173;SDS011;75;48.784;9.364;2023-05-10T15:37:11;5.47;;;2.60;;
173;SDS011;75;48.784;9.364;2023-05-10T15:39:37;5.50;;;2.90;;
173;SDS011;75;48.784;9.364;2023-05-10T15:42:03;4.60;;;2.40;;
173;SDS011;75;48.784;9.364;2023-05-10T15:44:29;3.80;;;2.43;;
173;SDS011;75;48.784;9.364;2023-05-10T15:46:55;6.40;;;2.80;;
173;SDS011;75;48.784;9.364;2023-05-10T15:49:21;4.03;;;2.50;;
173;SDS011;75;48.784;9.364;2023-05-10T15:51:47;3.60;;;2.00;;
173;SDS011;75;48.784;9.364;2023-05-10T15:54:13;4.20;;;2.10;;
173;SDS011;75;48.784;9.364;2023-05-10T15:56:39;4.53;;;2.30;;
173;SDS011;75;48.784;9.364;2023-05-10T15:59:05;3.20;;;2.20;;
173;SDS011;75;48.784;9.364;2023-05-10T16:01:32;3.67;;;2.10;;
173;SDS011;75;48.784;9.364;2023-05-10T16:03:59;5.50;;;2.23;;
173;SDS011;75;48.784;9.364;2023-05-10T16:06:25;8.33;;;2.30;;
173;SDS011;75;48.784;9.364;2023-05-10T16:08:51;5.30;;;2.97;;
173;SDS011;75;48.784;9.364;2023-05-10T16:11:16;3.07;;;2.20;;
173;SDS011;75;48.784;9.364;2023-05-10T16:13:42;4.00;;;2.20;;
173;SDS011;75;48.784;9.364;2023-05-10T16:16:08;6.63;;;2.73;;
173;SDS011;75;48.784;9.364;2023-05-10T16:18:34;4.43;;;2.30;;
173;SDS011;75;48.784;9.364;2023-05-10T16:21:00;3.23;;;2.30;;
173;SDS011;75;48.784;9.364;2023-05-10T16:23:26;5.40;;;2.87;;
173;SDS011;75;48.784;9.364;2023-05-10T16:25:53;3.63;;;2.33;;
173;SDS011;75;48.784;9.364;2023-05-10T16:28:20;3.00;;;2.10;;
173;SDS011;75;48.784;9.364;2023-05-10T16:30:46;4.10;;;2.50;;
173;SDS011;75;48.784;9.364;2023-05-10T16:33:12;3.50;;;2.50;;